sensor_id;sensor_type;location;lat;lon;timestamp;temperature;humidity
15184;DHT22;7693;49.266;7.104;2022-11-30T05:44:37;6.50;99.90
15184;DHT22;7693;49.266;7.104;2022-11-30T05:47:03;6.50;99.90
15184;DHT22;7693;49.266;7.104;2022-11-30T05:49:28;6.50;99.90
15184;DHT22;7693;49.266;7.104;2022-11-30T05:51:54;6.60;99.90
15184;DHT22;7693;49.266;7.104;2022-11-30T05:54:19;6.60;99.90
15184;DHT22;7693;49.266;7.104;2022-11-30T05:56:45;6.70;99.90
15184;DHT22;7693;49.266;7.104;2022-11-30T05:59:10;6.60;99.90
15184;DHT22;7693;49.266;7.104;2022-11-30T06:01:36;6.70;99.90
15184;DHT22;7693;49.266;7.104;2022-11-30T06:04:05;6.70;99.90
15184;DHT22;7693;49.266;7.104;2022-11-30T06:06:31;6.70;99.90
15184;DHT22;7693;49.266;7.104;2022-11-30T06:08:57;6.80;99.90
15184;DHT22;7693;49.266;7.104;2022-11-30T06:11:22;6.80;99.90
15184;DHT22;7693;49.266;7.104;2022-11-30T06:13:48;6.80;99.90
15184;DHT22;7693;49.266;7.104;2022-11-30T06:16:14;6.80;99.90
15184;DHT22;7693;49.266;7.104;2022-11-30T06:18:39;6.80;99.90
15184;DHT22;7693;49.266;7.104;2022-11-30T06:21:07;6.80;99.90
15184;DHT22;7693;49.266;7.104;2022-11-30T06:23:34;6.80;99.90
15184;DHT22;7693;49.266;7.104;2022-11-30T06:26:08;6.80;99.90
15184;DHT22;7693;49.266;7.104;2022-11-30T06:28:34;6.80;99.90
15184;DHT22;7693;49.266;7.104;2022-11-30T06:31:01;6.80;99.90
15184;DHT22;7693;49.266;7.104;2022-11-30T06:33:27;6.80;99.90
15184;DHT22;7693;49.266;7.104;2022-11-30T06:35:53;6.80;99.90
15184;DHT22;7693;49.266;7.104;2022-11-30T06:38:19;6.70;99.90
15184;DHT22;7693;49.266;7.104;2022-11-30T06:40:44;6.70;99.90
15184;DHT22;7693;49.266;7.104;2022-11-30T06:43:10;6.70;99.90
15184;DHT22;7693;49.266;7.104;2022-11-30T06:45:36;6.80;99.90
15184;DHT22;7693;49.266;7.104;2022-11-30T06:48:02;6.70;99.90
15184;DHT22;7693;49.266;7.104;2022-11-30T06:50:29;6.60;99.90
15184;DHT22;7693;49.266;7.104;2022-11-30T06:52:55;6.70;99.90
15184;DHT22;7693;49.266;7.104;2022-11-30T06:55:21;6.70;99.90
15184;DHT22;7693;49.266;7.104;2022-11-30T06:57:54;6.70;99.90
15184;DHT22;7693;49.266;7.104;2022-11-30T07:00:20;6.70;99.90
15184;DHT22;7693;49.266;7.104;2022-11-30T07:02:46;6.70;99.90
15184;DHT22;7693;49.266;7.104;2022-11-30T07:05:11;6.70;99.90
15184;DHT22;7693;49.266;7.104;2022-11-30T07:07:37;6.70;99.90
15184;DHT22;7693;49.266;7.104;2022-11-30T07:10:05;6.70;99.90
15184;DHT22;7693;49.266;7.104;2022-11-30T07:12:44;6.70;99.90
15184;DHT22;7693;49.266;7.104;2022-11-30T07:15:10;6.70;99.90
15184;DHT22;7693;49.266;7.104;2022-11-30T07:17:35;6.90;99.90
15184;DHT22;7693;49.266;7.104;2022-11-30T07:20:01;7.10;99.90
15184;DHT22;7693;49.266;7.104;2022-11-30T07:22:26;7.10;99.90
15184;DHT22;7693;49.266;7.104;2022-11-30T07:24:52;7.10;99.90
15184;DHT22;7693;49.266;7.104;2022-11-30T07:27:36;7.00;99.90
15184;DHT22;7693;49.266;7.104;2022-11-30T07:30:02;7.00;99.90
15184;DHT22;7693;49.266;7.104;2022-11-30T07:32:27;7.00;99.90
15184;DHT22;7693;49.266;7.104;2022-11-30T07:34:53;7.00;99.90
15184;DHT22;7693;49.266;7.104;2022-11-30T07:37:18;7.00;99.90
15184;DHT22;7693;49.266;7.104;2022-11-30T07:39:44;7.00;99.90
15184;DHT22;7693;49.266;7.104;2022-11-30T07:42:10;7.00;99.90
15184;DHT22;7693;49.266;7.104;2022-11-30T07:44:35;6.90;99.90
15184;DHT22;7693;49.266;7.104;2022-11-30T07:47:01;6.90;99.90
15184;DHT22;7693;49.266;7.104;2022-11-30T07:49:26;6.90;99.90
15184;DHT22;7693;49.266;7.104;2022-11-30T07:51:52;6.90;99.90
15184;DHT22;7693;49.266;7.104;2022-11-30T07:54:17;6.90;99.90
15184;DHT22;7693;49.266;7.104;2022-11-30T07:56:43;6.90;99.90
15184;DHT22;7693;49.266;7.104;2022-11-30T07:59:09;6.90;99.90
15184;DHT22;7693;49.266;7.104;2022-11-30T08:01:34;6.90;99.90
15184;DHT22;7693;49.266;7.104;2022-11-30T08:04:00;6.90;99.90
15184;DHT22;7693;49.266;7.104;2022-11-30T08:06:30;6.90;99.90
15184;DHT22;7693;49.266;7.104;2022-11-30T08:08:58;6.90;99.90
15184;DHT22;7693;49.266;7.104;2022-11-30T08:11:26;6.90;99.90
15184;DHT22;7693;49.266;7.104;2022-11-30T08:13:53;6.80;99.90
15184;DHT22;7693;49.266;7.104;2022-11-30T08:16:21;6.80;99.90
15184;DHT22;7693;49.266;7.104;2022-11-30T08:18:47;6.80;99.90
15184;DHT22;7693;49.266;7.104;2022-11-30T08:21:15;6.80;99.90
15184;DHT22;7693;49.266;7.104;2022-11-30T08:23:45;6.90;99.90
15184;DHT22;7693;49.266;7.104;2022-11-30T08:26:19;6.90;99.90
15184;DHT22;7693;49.266;7.104;2022-11-30T08:28:47;6.90;99.90
15184;DHT22;7693;49.266;7.104;2022-11-30T08:31:34;7.00;99.90
15184;DHT22;7693;49.266;7.104;2022-11-30T08:34:03;7.00;99.90
15184;DHT22;7693;49.266;7.104;2022-11-30T08:36:29;7.00;99.90
15184;DHT22;7693;49.266;7.104;2022-11-30T08:38:57;7.10;99.90
15184;DHT22;7693;49.266;7.104;2022-11-30T08:41:23;7.20;99.90
15184;DHT22;7693;49.266;7.104;2022-11-30T08:43:49;7.20;99.90
15184;DHT22;7693;49.266;7.104;2022-11-30T08:46:17;7.20;99.90
15184;DHT22;7693;49.266;7.104;2022-11-30T08:48:44;7.30;99.90
15184;DHT22;7693;49.266;7.104;2022-11-30T08:51:11;7.30;99.90
15184;DHT22;7693;49.266;7.104;2022-11-30T08:53:37;7.40;99.90
15184;DHT22;7693;49.266;7.104;2022-11-30T08:56:14;7.40;99.90
15184;DHT22;7693;49.266;7.104;2022-11-30T08:58:40;7.40;99.90
15184;DHT22;7693;49.266;7.104;2022-11-30T09:01:19;7.50;99.90
15184;DHT22;7693;49.266;7.104;2022-11-30T09:03:46;7.60;99.90
15184;DHT22;7693;49.266;7.104;2022-11-30T09:06:14;7.60;99.90
15184;DHT22;7693;49.266;7.104;2022-11-30T09:08:42;7.60;99.90
15184;DHT22;7693;49.266;7.104;2022-11-30T09:11:14;7.60;99.90
15184;DHT22;7693;49.266;7.104;2022-11-30T09:13:41;7.60;99.90
15184;DHT22;7693;49.266;7.104;2022-11-30T09:16:07;7.60;99.90
15184;DHT22;7693;49.266;7.104;2022-11-30T09:18:33;7.60;99.90
15184;DHT22;7693;49.266;7.104;2022-11-30T09:21:04;7.60;99.90
15184;DHT22;7693;49.266;7.104;2022-11-30T09:23:30;7.70;99.90
15184;DHT22;7693;49.266;7.104;2022-11-30T09:25:57;7.70;99.90
15184;DHT22;7693;49.266;7.104;2022-11-30T09:28:23;7.80;99.90
15184;DHT22;7693;49.266;7.104;2022-11-30T09:30:49;7.80;99.90
15184;DHT22;7693;49.266;7.104;2022-11-30T09:33:15;7.90;99.90
15184;DHT22;7693;49.266;7.104;2022-11-30T09:35:40;7.90;99.90
15184;DHT22;7693;49.266;7.104;2022-11-30T09:38:06;7.90;99.90
15184;DHT22;7693;49.266;7.104;2022-11-30T09:40:33;7.90;99.90
15184;DHT22;7693;49.266;7.104;2022-11-30T09:46:05;8.00;99.90
15184;DHT22;7693;49.266;7.104;2022-11-30T09:48:50;8.00;99.90
15184;DHT22;7693;49.266;7.104;2022-11-30T09:51:22;8.00;99.90
15184;DHT22;7693;49.266;7.104;2022-11-30T09:54:13;8.00;99.90
15184;DHT22;7693;49.266;7.104;2022-11-30T09:56:41;8.00;99.90
15184;DHT22;7693;49.266;7.104;2022-11-30T09:59:18;8.10;99.90
15184;DHT22;7693;49.266;7.104;2022-11-30T10:01:45;8.10;99.90
15184;DHT22;7693;49.266;7.104;2022-11-30T10:04:23;8.10;99.90
15184;DHT22;7693;49.266;7.104;2022-11-30T10:10:37;8.10;99.90
15184;DHT22;7693;49.266;7.104;2022-11-30T10:24:31;8.20;99.90
15184;DHT22;7693;49.266;7.104;2022-11-30T10:27:05;8.20;99.90
15184;DHT22;7693;49.266;7.104;2022-11-30T10:29:39;8.20;99.90
15184;DHT22;7693;49.266;7.104;2022-11-30T10:32:30;8.20;99.90
15184;DHT22;7693;49.266;7.104;2022-11-30T10:35:15;8.30;99.90
15184;DHT22;7693;49.266;7.104;2022-11-30T10:37:43;8.30;99.90
15184;DHT22;7693;49.266;7.104;2022-11-30T10:40:17;8.20;99.90
15184;DHT22;7693;49.266;7.104;2022-11-30T10:42:52;8.30;99.90
15184;DHT22;7693;49.266;7.104;2022-11-30T10:45:22;8.30;99.90
15184;DHT22;7693;49.266;7.104;2022-11-30T10:50:23;8.30;99.90
15184;DHT22;7693;49.266;7.104;2022-11-30T10:52:52;8.30;99.90
15184;DHT22;7693;49.266;7.104;2022-11-30T10:55:23;8.30;99.90
15184;DHT22;7693;49.266;7.104;2022-11-30T10:57:54;8.30;99.90
15184;DHT22;7693;49.266;7.104;2022-11-30T11:00:21;8.30;99.90
15184;DHT22;7693;49.266;7.104;2022-11-30T11:02:48;8.40;99.90
15184;DHT22;7693;49.266;7.104;2022-11-30T11:05:29;8.40;99.90
15184;DHT22;7693;49.266;7.104;2022-11-30T13:17:57;8.40;99.90
15184;DHT22;7693;49.266;7.104;2022-11-30T13:20:38;8.40;99.90
15184;DHT22;7693;49.266;7.104;2022-11-30T13:23:31;8.40;99.90
15184;DHT22;7693;49.266;7.104;2022-11-30T16:34:26;8.20;99.90
15184;DHT22;7693;49.266;7.104;2022-11-30T16:36:51;8.20;99.90
15184;DHT22;7693;49.266;7.104;2022-11-30T16:39:17;8.30;99.90
15184;DHT22;7693;49.266;7.104;2022-11-30T16:41:42;8.30;99.90
15184;DHT22;7693;49.266;7.104;2022-11-30T16:44:13;8.30;99.90
15184;DHT22;7693;49.266;7.104;2022-11-30T16:46:39;8.30;99.90
15184;DHT22;7693;49.266;7.104;2022-11-30T16:49:04;8.30;99.90
15184;DHT22;7693;49.266;7.104;2022-11-30T16:51:31;8.30;99.90
15184;DHT22;7693;49.266;7.104;2022-11-30T16:53:58;8.30;99.90
15184;DHT22;7693;49.266;7.104;2022-11-30T16:56:24;8.30;99.90
15184;DHT22;7693;49.266;7.104;2022-11-30T16:58:50;8.30;99.90
15184;DHT22;7693;49.266;7.104;2022-11-30T19:53:27;7.50;99.90
15184;DHT22;7693;49.266;7.104;2022-11-30T19:55:53;7.50;99.90
15184;DHT22;7693;49.266;7.104;2022-11-30T19:58:18;7.60;99.90
15184;DHT22;7693;49.266;7.104;2022-11-30T20:00:45;7.60;99.90
15184;DHT22;7693;49.266;7.104;2022-11-30T20:03:10;7.60;99.90
15184;DHT22;7693;49.266;7.104;2022-11-30T20:05:37;7.60;99.90
15184;DHT22;7693;49.266;7.104;2022-11-30T20:08:03;7.60;99.90
15184;DHT22;7693;49.266;7.104;2022-11-30T20:10:29;7.60;99.90
15184;DHT22;7693;49.266;7.104;2022-11-30T20:12:55;7.70;99.90
15184;DHT22;7693;49.266;7.104;2022-11-30T20:15:21;7.70;99.90
15184;DHT22;7693;49.266;7.104;2022-11-30T20:17:46;7.70;99.90
15184;DHT22;7693;49.266;7.104;2022-11-30T20:20:12;7.70;99.90
15184;DHT22;7693;49.266;7.104;2022-11-30T20:22:38;7.70;99.90
15184;DHT22;7693;49.266;7.104;2022-11-30T20:25:04;7.70;99.90
15184;DHT22;7693;49.266;7.104;2022-11-30T20:27:30;7.70;99.90
15184;DHT22;7693;49.266;7.104;2022-11-30T20:29:56;7.70;99.90
15184;DHT22;7693;49.266;7.104;2022-11-30T20:32:22;7.70;99.90
15184;DHT22;7693;49.266;7.104;2022-11-30T20:34:47;7.70;99.90
15184;DHT22;7693;49.266;7.104;2022-11-30T20:37:13;7.70;99.90
15184;DHT22;7693;49.266;7.104;2022-11-30T20:39:43;7.70;99.90
15184;DHT22;7693;49.266;7.104;2022-11-30T20:42:09;7.70;99.90
15184;DHT22;7693;49.266;7.104;2022-11-30T20:44:35;7.70;99.90
15184;DHT22;7693;49.266;7.104;2022-11-30T20:47:00;7.70;99.90
15184;DHT22;7693;49.266;7.104;2022-11-30T20:49:26;7.70;99.90
15184;DHT22;7693;49.266;7.104;2022-11-30T20:51:51;7.70;99.90
15184;DHT22;7693;49.266;7.104;2022-11-30T20:54:17;7.70;99.90
15184;DHT22;7693;49.266;7.104;2022-11-30T20:56:43;7.70;99.90
15184;DHT22;7693;49.266;7.104;2022-11-30T20:59:16;7.70;99.90
15184;DHT22;7693;49.266;7.104;2022-11-30T21:01:46;7.70;99.90
15184;DHT22;7693;49.266;7.104;2022-11-30T21:04:12;7.70;99.90
15184;DHT22;7693;49.266;7.104;2022-11-30T21:06:37;7.70;99.90
15184;DHT22;7693;49.266;7.104;2022-11-30T21:09:03;7.70;99.90
15184;DHT22;7693;49.266;7.104;2022-11-30T21:11:30;7.70;99.90
15184;DHT22;7693;49.266;7.104;2022-11-30T21:13:56;7.70;99.90
15184;DHT22;7693;49.266;7.104;2022-11-30T21:16:24;7.70;99.90
15184;DHT22;7693;49.266;7.104;2022-11-30T21:18:50;7.70;99.90
15184;DHT22;7693;49.266;7.104;2022-11-30T21:21:20;7.70;99.90
15184;DHT22;7693;49.266;7.104;2022-11-30T21:23:46;7.70;99.90
15184;DHT22;7693;49.266;7.104;2022-11-30T21:26:20;7.70;99.90
15184;DHT22;7693;49.266;7.104;2022-11-30T21:28:47;7.70;99.90
15184;DHT22;7693;49.266;7.104;2022-11-30T21:31:13;7.70;99.90
15184;DHT22;7693;49.266;7.104;2022-11-30T21:33:39;7.70;99.90
15184;DHT22;7693;49.266;7.104;2022-11-30T21:36:06;7.70;99.90
15184;DHT22;7693;49.266;7.104;2022-11-30T21:38:32;7.70;99.90
15184;DHT22;7693;49.266;7.104;2022-11-30T21:41:00;7.70;99.90
15184;DHT22;7693;49.266;7.104;2022-11-30T21:43:27;7.70;99.90
15184;DHT22;7693;49.266;7.104;2022-11-30T21:45:58;7.70;99.90
15184;DHT22;7693;49.266;7.104;2022-11-30T21:48:24;7.70;99.90
15184;DHT22;7693;49.266;7.104;2022-11-30T21:51:00;7.70;99.90
15184;DHT22;7693;49.266;7.104;2022-11-30T21:53:27;7.80;99.90
15184;DHT22;7693;49.266;7.104;2022-11-30T21:55:53;7.70;99.90
15184;DHT22;7693;49.266;7.104;2022-11-30T21:58:19;7.70;99.90
15184;DHT22;7693;49.266;7.104;2022-11-30T22:00:52;7.70;99.90
15184;DHT22;7693;49.266;7.104;2022-11-30T22:03:18;7.80;99.90
15184;DHT22;7693;49.266;7.104;2022-11-30T22:05:43;7.80;99.90
15184;DHT22;7693;49.266;7.104;2022-11-30T22:08:09;7.80;99.90
15184;DHT22;7693;49.266;7.104;2022-11-30T22:10:34;7.80;99.90
15184;DHT22;7693;49.266;7.104;2022-11-30T22:13:00;7.80;99.90
15184;DHT22;7693;49.266;7.104;2022-11-30T22:15:25;7.80;99.90
15184;DHT22;7693;49.266;7.104;2022-11-30T22:17:51;7.80;99.90
15184;DHT22;7693;49.266;7.104;2022-11-30T22:20:16;7.80;99.90
15184;DHT22;7693;49.266;7.104;2022-11-30T22:22:42;7.80;99.90
15184;DHT22;7693;49.266;7.104;2022-11-30T22:25:08;7.80;99.90
15184;DHT22;7693;49.266;7.104;2022-11-30T22:27:35;7.80;99.90
15184;DHT22;7693;49.266;7.104;2022-11-30T22:30:01;7.70;99.90
15184;DHT22;7693;49.266;7.104;2022-11-30T22:32:27;7.70;99.90
15184;DHT22;7693;49.266;7.104;2022-11-30T22:34:53;7.60;99.90
15184;DHT22;7693;49.266;7.104;2022-11-30T22:37:18;7.60;99.90
15184;DHT22;7693;49.266;7.104;2022-11-30T22:39:44;7.60;99.90
15184;DHT22;7693;49.266;7.104;2022-11-30T22:42:09;7.60;99.90
15184;DHT22;7693;49.266;7.104;2022-11-30T22:44:35;7.60;99.90
15184;DHT22;7693;49.266;7.104;2022-11-30T22:47:00;7.60;99.90
15184;DHT22;7693;49.266;7.104;2022-11-30T22:49:26;7.70;99.90
15184;DHT22;7693;49.266;7.104;2022-11-30T22:51:51;7.60;99.90
15184;DHT22;7693;49.266;7.104;2022-11-30T22:54:17;7.60;99.90
15184;DHT22;7693;49.266;7.104;2022-11-30T22:56:43;7.60;99.90
15184;DHT22;7693;49.266;7.104;2022-11-30T22:59:11;7.60;99.90
15184;DHT22;7693;49.266;7.104;2022-11-30T23:01:42;7.60;99.90
15184;DHT22;7693;49.266;7.104;2022-11-30T23:04:10;7.60;99.90
15184;DHT22;7693;49.266;7.104;2022-11-30T23:06:38;7.60;99.90
15184;DHT22;7693;49.266;7.104;2022-11-30T23:09:06;7.60;99.90
15184;DHT22;7693;49.266;7.104;2022-11-30T23:11:32;7.60;99.90
15184;DHT22;7693;49.266;7.104;2022-11-30T23:13:57;7.60;99.90
15184;DHT22;7693;49.266;7.104;2022-11-30T23:16:23;7.60;99.90
15184;DHT22;7693;49.266;7.104;2022-11-30T23:18:53;7.60;99.90
15184;DHT22;7693;49.266;7.104;2022-11-30T23:21:28;7.60;99.90
15184;DHT22;7693;49.266;7.104;2022-11-30T23:23:56;7.60;99.90
15184;DHT22;7693;49.266;7.104;2022-11-30T23:26:25;7.60;99.90
